Time;durP1;ratioP1;P1;durP2;ratioP2;P2;SDS_P1;SDS_P2;PMS_P1;PMS_P2;Temp;Humidity;BMP_temperature;BMP_pressure;BME280_temperature;BME280_humidity;BME280_pressure;Samples;Min_cycle;Max_cycle;Signal;HPM_P1;HPM_P2
2023/11/30 00:00:24;;;;;;;74.72;30.23;;;0.80;99.90;;;;;;4955379;28;20035;-77
2023/11/30 00:02:51;;;;;;;67.93;30.88;;;0.80;99.90;;;;;;4973035;28;20135;-75
2023/11/30 00:05:18;;;;;;;70.20;30.83;;;0.80;99.90;;;;;;4959389;28;20046;-73
2023/11/30 00:07:49;;;;;;;75.18;33.35;;;0.80;99.90;;;;;;4958301;28;20446;-75
2023/11/30 00:10:16;;;;;;;70.05;29.88;;;0.90;99.90;;;;;;4970211;28;20133;-75
2023/11/30 00:12:43;;;;;;;73.57;32.10;;;0.90;99.90;;;;;;4956863;28;20034;-76
2023/11/30 00:15:10;;;;;;;80.95;33.95;;;0.90;99.90;;;;;;4965893;28;20077;-75
2023/11/30 00:17:36;;;;;;;67.03;30.58;;;0.90;99.90;;;;;;4951748;28;20038;-76
2023/11/30 00:20:04;;;;;;;92.13;33.30;;;0.80;99.90;;;;;;4977793;28;20054;-75
2023/11/30 00:22:30;;;;;;;77.82;32.60;;;0.90;99.90;;;;;;4956905;28;20061;-74
2023/11/30 00:24:57;;;;;;;79.95;33.10;;;0.90;99.90;;;;;;4960262;28;20050;-76
2023/11/30 00:27:24;;;;;;;74.78;32.47;;;0.90;99.90;;;;;;4969236;28;20054;-76
2023/11/30 00:29:51;;;;;;;80.70;34.53;;;0.90;99.90;;;;;;4937289;28;20050;-76
2023/11/30 00:32:17;;;;;;;84.50;35.38;;;0.80;99.90;;;;;;4963309;28;20391;-76
2023/11/30 00:34:44;;;;;;;89.57;37.10;;;0.80;99.90;;;;;;4949007;28;20426;-76
2023/11/30 00:37:11;;;;;;;90.38;34.83;;;0.80;99.90;;;;;;4950240;28;20042;-76
2023/11/30 00:39:38;;;;;;;87.65;33.72;;;0.80;99.90;;;;;;4951807;28;20054;-76
2023/11/30 00:42:05;;;;;;;78.78;33.67;;;0.80;99.90;;;;;;4969851;28;20038;-76
2023/11/30 00:44:32;;;;;;;80.28;36.15;;;0.90;99.90;;;;;;4956085;28;21745;-76
2023/11/30 00:46:59;;;;;;;79.53;35.25;;;0.90;99.90;;;;;;4961499;28;20069;-77
2023/11/30 00:49:27;;;;;;;84.13;37.67;;;0.90;99.90;;;;;;4944069;28;20045;-76
2023/11/30 00:51:53;;;;;;;90.20;37.85;;;0.90;99.90;;;;;;4941762;28;20039;-77
2023/11/30 00:54:20;;;;;;;84.95;34.67;;;1.00;99.90;;;;;;4942792;28;20532;-76
2023/11/30 00:56:47;;;;;;;96.55;36.38;;;0.90;99.90;;;;;;4941007;28;20038;-76
2023/11/30 00:59:14;;;;;;;91.72;37.10;;;0.90;99.90;;;;;;4937040;28;20077;-76
2023/11/30 01:01:41;;;;;;;83.53;35.35;;;0.90;99.90;;;;;;4952636;28;20054;-76
2023/11/30 01:04:08;;;;;;;81.97;35.05;;;0.90;99.90;;;;;;4952631;28;20053;-75
2023/11/30 01:06:36;;;;;;;93.32;35.25;;;0.90;99.90;;;;;;4946026;28;20476;-76
2023/11/30 01:09:03;;;;;;;85.90;38.85;;;0.90;99.90;;;;;;4935238;28;20481;-76
2023/11/30 01:11:30;;;;;;;85.20;36.92;;;1.00;99.90;;;;;;4947389;28;20102;-76
2023/11/30 01:13:56;;;;;;;79.85;34.70;;;0.90;99.90;;;;;;4981862;28;20078;-76
2023/11/30 01:16:24;;;;;;;80.38;35.92;;;0.90;99.90;;;;;;4938029;28;20054;-76
2023/11/30 01:18:50;;;;;;;86.28;37.45;;;0.80;99.90;;;;;;4966000;28;20137;-75
2023/11/30 01:21:17;;;;;;;92.85;37.33;;;0.80;99.90;;;;;;4946956;28;20058;-75
2023/11/30 01:23:44;;;;;;;89.45;38.70;;;0.90;99.90;;;;;;4955457;28;20545;-76
2023/11/30 01:26:11;;;;;;;80.95;37.95;;;0.80;99.90;;;;;;4965091;28;20050;-76
2023/11/30 01:28:38;;;;;;;94.60;37.25;;;0.70;99.90;;;;;;4950849;28;20123;-76
2023/11/30 01:31:06;;;;;;;90.38;37.58;;;0.70;99.90;;;;;;4948777;28;20105;-75
2023/11/30 01:33:33;;;;;;;90.35;37.80;;;0.80;99.90;;;;;;4947372;28;20061;-76
2023/11/30 01:36:00;;;;;;;89.35;35.85;;;0.80;99.90;;;;;;4961582;28;20041;-77
2023/11/30 01:38:27;;;;;;;85.70;38.05;;;0.80;99.90;;;;;;4955662;28;20057;-76
2023/11/30 01:40:53;;;;;;;84.32;38.35;;;0.90;99.90;;;;;;4946173;28;20063;-75
2023/11/30 01:43:21;;;;;;;103.85;41.90;;;1.00;99.90;;;;;;4948199;28;20113;-76
2023/11/30 01:45:50;;;;;;;86.13;40.20;;;1.00;99.90;;;;;;4930991;28;20611;-77
2023/11/30 01:48:30;;;;;;;86.22;37.72;;;1.10;99.90;;;;;;4967418;28;20528;-76
2023/11/30 01:50:57;;;;;;;87.60;39.60;;;1.00;99.90;;;;;;4966116;28;20038;-77
2023/11/30 01:53:24;;;;;;;89.32;40.00;;;1.00;99.90;;;;;;4968113;28;20050;-76
2023/11/30 01:55:51;;;;;;;91.30;39.30;;;1.00;99.90;;;;;;4947184;28;20601;-77
2023/11/30 01:58:19;;;;;;;98.57;42.47;;;1.10;99.90;;;;;;4933572;28;20406;-77
2023/11/30 02:00:47;;;;;;;84.90;39.10;;;1.00;99.90;;;;;;4950188;28;20097;-76
2023/11/30 02:03:16;;;;;;;87.55;39.63;;;0.90;99.90;;;;;;4956272;28;20077;-75
2023/11/30 02:05:44;;;;;;;91.60;40.90;;;0.90;99.90;;;;;;4949436;28;20046;-76
2023/11/30 02:08:11;;;;;;;95.22;43.28;;;1.00;99.90;;;;;;4957002;28;20772;-77
2023/11/30 02:10:38;;;;;;;93.47;41.45;;;0.90;99.90;;;;;;4965792;28;20142;-75
2023/11/30 02:13:04;;;;;;;97.40;42.55;;;0.80;99.90;;;;;;4945316;28;20046;-76
2023/11/30 02:15:31;;;;;;;96.32;43.85;;;0.80;99.90;;;;;;4947959;28;20050;-76
2023/11/30 02:17:58;;;;;;;94.93;43.10;;;0.80;99.90;;;;;;4966514;28;20074;-75
2023/11/30 02:20:25;;;;;;;94.63;44.83;;;0.80;99.90;;;;;;4952633;28;20136;-75
2023/11/30 02:22:52;;;;;;;105.70;48.00;;;0.60;99.90;;;;;;4940764;28;20050;-75
2023/11/30 02:25:19;;;;;;;103.35;45.50;;;0.60;99.90;;;;;;4961564;28;20053;-76
2023/11/30 02:27:45;;;;;;;100.65;46.40;;;0.60;99.90;;;;;;4951114;28;20141;-76
2023/11/30 02:30:12;;;;;;;98.97;47.55;;;0.50;99.90;;;;;;4941782;28;20047;-76
2023/11/30 02:32:39;;;;;;;96.53;45.42;;;0.60;99.90;;;;;;4946966;28;20830;-75
2023/11/30 02:35:07;;;;;;;107.88;48.03;;;0.50;99.90;;;;;;4945053;28;20201;-75
2023/11/30 02:37:34;;;;;;;107.50;46.65;;;0.40;99.90;;;;;;4950381;28;20082;-76
2023/11/30 02:40:01;;;;;;;111.30;46.78;;;0.30;99.90;;;;;;4957750;28;20129;-76
2023/11/30 02:42:28;;;;;;;108.80;47.08;;;0.30;99.90;;;;;;4946207;28;20042;-74
2023/11/30 02:44:54;;;;;;;111.07;45.53;;;0.30;99.90;;;;;;4966443;28;20101;-75
2023/11/30 02:47:22;;;;;;;102.45;43.90;;;0.20;99.90;;;;;;4947878;28;20513;-75
2023/11/30 02:49:49;;;;;;;114.70;46.55;;;0.00;99.90;;;;;;4964837;28;20057;-73
2023/11/30 02:52:16;;;;;;;120.47;44.67;;;0.10;99.90;;;;;;4982195;28;20209;-75
2023/11/30 02:54:43;;;;;;;118.30;45.85;;;0.00;99.90;;;;;;4956982;28;20461;-75
2023/11/30 02:57:09;;;;;;;112.40;45.08;;;-0.10;99.90;;;;;;4954429;28;21073;-75
2023/11/30 02:59:50;;;;;;;118.13;42.65;;;-0.10;99.90;;;;;;4956344;28;20042;-77
2023/11/30 03:02:30;;;;;;;109.50;41.30;;;-0.30;99.90;;;;;;4970824;28;20298;-75
2023/11/30 03:04:57;;;;;;;115.82;44.50;;;-0.30;99.90;;;;;;4950939;28;20084;-76
2023/11/30 03:07:24;;;;;;;130.80;46.70;;;-0.30;99.90;;;;;;4948886;28;20050;-76
2023/11/30 03:09:50;;;;;;;122.50;43.08;;;-0.30;99.90;;;;;;4947636;28;20645;-74
2023/11/30 03:12:17;;;;;;;118.47;43.58;;;-0.40;99.90;;;;;;4957186;28;20121;-76
2023/11/30 03:14:45;;;;;;;121.05;45.25;;;-0.50;99.90;;;;;;4963063;28;20046;-76
2023/11/30 03:17:12;;;;;;;131.90;43.63;;;-0.50;99.90;;;;;;4933492;28;20124;-75
2023/11/30 03:19:39;;;;;;;120.38;44.00;;;-0.50;99.90;;;;;;4949715;28;20054;-75
2023/11/30 03:22:06;;;;;;;124.03;44.35;;;-0.40;99.90;;;;;;4950807;28;20240;-76
2023/11/30 03:24:33;;;;;;;125.80;47.47;;;-0.40;99.90;;;;;;4947227;28;20051;-75
2023/11/30 03:27:00;;;;;;;118.25;44.53;;;-0.40;99.90;;;;;;4955860;28;20365;-74
2023/11/30 03:29:26;;;;;;;117.22;43.20;;;-0.40;99.90;;;;;;4930131;28;20106;-77
2023/11/30 03:31:53;;;;;;;108.93;41.58;;;-0.30;99.90;;;;;;4945109;28;20745;-76
2023/11/30 03:34:20;;;;;;;117.35;43.42;;;-0.40;99.90;;;;;;4951515;28;20062;-75
2023/11/30 03:36:49;;;;;;;109.00;39.90;;;-0.30;99.90;;;;;;4966691;28;20560;-75
2023/11/30 03:39:16;;;;;;;117.90;41.63;;;-0.30;99.90;;;;;;4940966;28;20140;-76
2023/11/30 03:41:42;;;;;;;92.40;38.47;;;-0.40;99.90;;;;;;4948691;28;20070;-75
2023/11/30 03:44:09;;;;;;;109.43;40.85;;;-0.40;99.90;;;;;;4968572;28;20437;-75
2023/11/30 03:46:37;;;;;;;114.07;39.25;;;-0.40;99.90;;;;;;4941222;28;20643;-75
2023/11/30 03:49:04;;;;;;;107.00;38.22;;;-0.40;99.90;;;;;;4949585;28;20053;-76
2023/11/30 03:51:31;;;;;;;103.30;38.20;;;-0.40;99.90;;;;;;4945970;28;20074;-76
2023/11/30 03:53:58;;;;;;;107.05;40.35;;;-0.40;99.90;;;;;;4943726;28;20047;-76
2023/11/30 03:56:25;;;;;;;115.85;39.67;;;-0.40;99.90;;;;;;4943113;28;20053;-75
2023/11/30 03:58:52;;;;;;;105.57;37.20;;;-0.40;99.90;;;;;;4964052;28;20061;-76
2023/11/30 04:01:24;;;;;;;115.47;38.80;;;-0.40;99.90;;;;;;4937656;28;20461;-74
2023/11/30 04:03:51;;;;;;;105.95;39.33;;;-0.40;99.90;;;;;;4935428;28;20054;-76
2023/11/30 04:06:20;;;;;;;99.80;37.92;;;-0.40;99.90;;;;;;4947101;28;20042;-76
2023/11/30 04:08:47;;;;;;;104.28;38.22;;;-0.40;99.90;;;;;;4944460;28;20426;-75
2023/11/30 04:11:15;;;;;;;112.07;39.28;;;-0.40;99.90;;;;;;4950447;28;20054;-75
2023/11/30 04:13:46;;;;;;;111.20;39.85;;;-0.40;99.90;;;;;;4952425;28;20476;-76
2023/11/30 04:16:14;;;;;;;110.20;41.03;;;-0.40;99.90;;;;;;4955756;28;20720;-75
2023/11/30 04:18:42;;;;;;;104.57;38.42;;;-0.50;99.90;;;;;;4957684;28;20043;-75
2023/11/30 04:21:09;;;;;;;115.20;42.45;;;-0.50;99.90;;;;;;4952703;28;20038;-75
2023/11/30 04:23:36;;;;;;;105.13;39.17;;;-0.50;99.90;;;;;;4949908;28;20043;-76
2023/11/30 04:26:03;;;;;;;98.68;38.70;;;-0.60;99.90;;;;;;4969786;28;20114;-76
2023/11/30 04:28:30;;;;;;;108.47;40.08;;;-0.50;99.90;;;;;;4951636;28;20723;-75
2023/11/30 04:30:57;;;;;;;104.30;37.65;;;-0.50;99.90;;;;;;4956986;28;20156;-77
2023/11/30 04:33:24;;;;;;;115.80;40.38;;;-0.60;99.90;;;;;;4956649;28;20841;-76
2023/11/30 04:35:51;;;;;;;115.15;40.70;;;-0.60;99.90;;;;;;4936956;28;20046;-77
2023/11/30 04:38:18;;;;;;;119.65;43.08;;;-0.60;99.90;;;;;;4953529;28;20077;-76
2023/11/30 04:40:45;;;;;;;114.10;43.30;;;-0.50;99.90;;;;;;4953787;28;20146;-77
2023/11/30 04:43:12;;;;;;;106.72;41.50;;;-0.50;99.90;;;;;;4951304;28;20042;-76
2023/11/30 04:45:39;;;;;;;105.40;41.65;;;-0.60;99.90;;;;;;4955055;28;20425;-76
2023/11/30 04:48:06;;;;;;;106.28;40.40;;;-0.50;99.90;;;;;;4969244;28;20072;-75
2023/11/30 04:50:33;;;;;;;111.70;42.33;;;-0.50;99.90;;;;;;4931555;28;20042;-76
2023/11/30 04:53:01;;;;;;;117.07;41.88;;;-0.60;99.90;;;;;;4973761;28;20533;-76
2023/11/30 04:55:28;;;;;;;106.40;39.75;;;-0.60;99.90;;;;;;4966804;28;20061;-76
2023/11/30 04:57:54;;;;;;;91.57;38.97;;;-0.70;99.90;;;;;;4933571;28;20476;-75
2023/11/30 05:00:21;;;;;;;85.38;39.40;;;-0.60;99.90;;;;;;4966029;28;20038;-76
2023/11/30 05:02:55;;;;;;;97.30;40.55;;;-0.60;99.90;;;;;;4948014;28;20042;-76
2023/11/30 05:05:22;;;;;;;92.45;39.40;;;-0.60;99.90;;;;;;4939074;28;20057;-76
2023/11/30 05:07:49;;;;;;;96.13;44.92;;;-0.60;99.90;;;;;;4943640;28;20988;-77
2023/11/30 05:10:16;;;;;;;96.43;42.38;;;-0.60;99.90;;;;;;4970917;28;20050;-75
2023/11/30 05:12:43;;;;;;;100.38;41.95;;;-0.70;99.90;;;;;;4957777;28;20050;-77
2023/11/30 05:15:10;;;;;;;93.18;39.55;;;-0.50;99.90;;;;;;4956390;28;20116;-74
2023/11/30 05:17:37;;;;;;;92.47;40.15;;;-0.70;99.90;;;;;;4933008;28;20055;-75
2023/11/30 05:20:04;;;;;;;90.50;38.00;;;-0.70;99.90;;;;;;4955363;28;20073;-74
2023/11/30 05:22:31;;;;;;;83.88;36.50;;;-0.70;99.90;;;;;;4968154;28;20046;-75
2023/11/30 05:24:58;;;;;;;88.40;37.88;;;-0.80;99.90;;;;;;4974505;28;20054;-76
2023/11/30 05:27:24;;;;;;;99.47;40.60;;;-0.80;99.90;;;;;;4951524;28;20137;-75
2023/11/30 05:29:51;;;;;;;84.05;36.75;;;-0.90;99.90;;;;;;4965757;28;20239;-75
2023/11/30 05:32:18;;;;;;;89.65;38.00;;;-0.80;99.90;;;;;;4953391;28;20120;-75
2023/11/30 05:34:45;;;;;;;86.72;37.05;;;-0.80;99.90;;;;;;4950114;28;20489;-76
2023/11/30 05:37:12;;;;;;;80.68;37.10;;;-0.80;99.90;;;;;;4953521;28;20046;-76
2023/11/30 05:39:39;;;;;;;88.65;37.78;;;-0.80;99.90;;;;;;4963703;28;20077;-75
2023/11/30 05:42:08;;;;;;;87.45;36.72;;;-0.80;99.90;;;;;;4955077;28;20068;-75
2023/11/30 05:44:35;;;;;;;93.55;36.90;;;-0.80;99.90;;;;;;4963010;28;20065;-75
2023/11/30 05:47:02;;;;;;;82.57;34.95;;;-0.90;99.90;;;;;;4954072;28;20054;-76
2023/11/30 05:49:29;;;;;;;91.55;39.50;;;-0.80;99.90;;;;;;4953135;28;20094;-75
2023/11/30 05:51:56;;;;;;;85.07;34.78;;;-0.80;99.90;;;;;;4958746;28;20104;-76
2023/11/30 05:54:23;;;;;;;83.70;34.42;;;-0.80;99.90;;;;;;4923333;28;20137;-75
2023/11/30 05:56:50;;;;;;;77.28;35.60;;;-0.90;99.90;;;;;;4936332;28;20897;-76
2023/11/30 05:59:16;;;;;;;80.25;34.30;;;-0.80;99.90;;;;;;4929309;28;20106;-75
2023/11/30 06:01:43;;;;;;;77.80;35.05;;;-0.70;99.90;;;;;;4948626;28;20109;-75
2023/11/30 06:04:10;;;;;;;86.25;36.30;;;-0.70;99.90;;;;;;4953058;28;20129;-75
2023/11/30 06:06:37;;;;;;;81.10;36.65;;;-0.70;99.90;;;;;;4964037;28;20051;-75
2023/11/30 06:09:04;;;;;;;77.45;35.22;;;-0.70;99.90;;;;;;4962280;28;20053;-76
2023/11/30 06:11:31;;;;;;;84.40;36.25;;;-0.70;99.90;;;;;;4940606;28;20410;-74
2023/11/30 06:13:58;;;;;;;80.38;36.63;;;-0.80;99.90;;;;;;4972911;28;20058;-73
2023/11/30 06:16:27;;;;;;;80.40;36.35;;;-0.80;99.90;;;;;;4949729;28;20047;-75
2023/11/30 06:18:54;;;;;;;82.03;37.15;;;-0.80;99.90;;;;;;4947135;28;20054;-76
2023/11/30 06:21:21;;;;;;;91.82;39.53;;;-0.80;99.90;;;;;;4966880;28;20092;-75
2023/11/30 06:23:47;;;;;;;82.22;39.28;;;-0.80;99.90;;;;;;4952984;28;20046;-74
2023/11/30 06:26:14;;;;;;;89.72;39.85;;;-0.80;99.90;;;;;;4948541;28;20046;-74
2023/11/30 06:28:41;;;;;;;86.88;41.78;;;-0.80;99.90;;;;;;4971259;28;20061;-74
2023/11/30 06:31:08;;;;;;;74.40;36.28;;;-0.80;99.90;;;;;;4980303;28;20081;-75
2023/11/30 06:33:35;;;;;;;71.55;34.40;;;-0.80;99.90;;;;;;4976685;28;20065;-74
2023/11/30 06:36:04;;;;;;;78.15;36.95;;;-0.80;99.90;;;;;;4958475;28;20050;-75
2023/11/30 06:38:31;;;;;;;72.78;36.35;;;-0.80;99.90;;;;;;4944477;28;20093;-75
2023/11/30 06:41:00;;;;;;;71.70;37.05;;;-0.90;99.90;;;;;;4954720;28;20065;-76
2023/11/30 06:43:28;;;;;;;78.20;39.75;;;-0.80;99.90;;;;;;4967741;28;20057;-75
2023/11/30 06:45:55;;;;;;;85.00;42.47;;;-0.90;99.90;;;;;;4932235;28;20047;-75
2023/11/30 06:48:24;;;;;;;81.63;39.70;;;-1.10;99.90;;;;;;4935280;28;20047;-75
2023/11/30 06:50:51;;;;;;;90.63;40.72;;;-1.20;99.90;;;;;;4961437;28;20132;-75
2023/11/30 06:53:18;;;;;;;78.25;38.83;;;-1.20;99.90;;;;;;4949227;28;20144;-74
2023/11/30 06:55:45;;;;;;;71.80;36.88;;;-1.10;99.90;;;;;;4940416;28;20109;-75
2023/11/30 06:58:12;;;;;;;69.75;36.40;;;-1.10;99.90;;;;;;4949434;28;20058;-75
2023/11/30 07:00:39;;;;;;;90.53;38.35;;;-1.00;99.90;;;;;;4939085;28;20054;-74
2023/11/30 07:03:06;;;;;;;76.55;35.90;;;-1.10;99.90;;;;;;4946011;28;20074;-75
2023/11/30 07:05:33;;;;;;;73.35;39.05;;;-1.30;99.90;;;;;;4943390;28;20049;-76
2023/11/30 07:08:00;;;;;;;69.43;33.45;;;-1.20;99.90;;;;;;4947659;28;20062;-76
2023/11/30 07:10:26;;;;;;;81.57;34.03;;;-1.20;99.90;;;;;;4947233;28;20054;-71
2023/11/30 07:12:53;;;;;;;68.38;32.20;;;-1.20;99.90;;;;;;4942491;28;20052;-73
2023/11/30 07:15:20;;;;;;;63.30;32.22;;;-1.10;99.90;;;;;;4952594;28;20073;-72
2023/11/30 07:17:47;;;;;;;66.05;32.05;;;-1.10;99.90;;;;;;4955130;28;20043;-72
2023/11/30 07:20:14;;;;;;;77.30;32.45;;;-1.00;99.90;;;;;;4948593;28;20039;-72
2023/11/30 07:22:41;;;;;;;63.72;30.20;;;-1.00;99.90;;;;;;4929903;28;20597;-73
2023/11/30 07:25:08;;;;;;;59.05;30.85;;;-0.90;99.90;;;;;;4945028;28;20043;-72
2023/11/30 07:27:35;;;;;;;64.50;32.80;;;-0.90;99.90;;;;;;4962271;28;20101;-71
2023/11/30 07:30:03;;;;;;;72.95;32.92;;;-0.80;99.90;;;;;;4951919;28;20055;-73
2023/11/30 07:32:30;;;;;;;79.47;33.80;;;-0.80;99.90;;;;;;4963121;28;20035;-72
2023/11/30 07:34:56;;;;;;;77.95;34.80;;;-0.70;99.90;;;;;;4949427;28;20785;-72
2023/11/30 07:37:23;;;;;;;78.43;34.53;;;-0.80;99.90;;;;;;4946899;28;20042;-72
2023/11/30 07:39:50;;;;;;;73.28;34.67;;;-0.80;99.90;;;;;;4942695;28;20046;-72
2023/11/30 07:42:19;;;;;;;85.05;37.97;;;-0.90;99.90;;;;;;4948010;28;20814;-73
2023/11/30 07:44:59;;;;;;;66.88;31.23;;;-0.90;99.90;;;;;;4948352;28;20061;-72
2023/11/30 07:47:26;;;;;;;70.60;32.58;;;-0.90;99.90;;;;;;4954072;28;20054;-74
2023/11/30 07:49:53;;;;;;;68.70;32.40;;;-0.90;99.90;;;;;;4949790;28;20034;-73
2023/11/30 07:52:20;;;;;;;57.75;28.60;;;-0.90;99.90;;;;;;4969622;28;20050;-71
2023/11/30 07:54:47;;;;;;;79.50;30.95;;;-1.00;99.90;;;;;;4953707;28;20030;-72
2023/11/30 07:57:16;;;;;;;67.15;30.50;;;-1.10;99.90;;;;;;4971219;28;20126;-72
2023/11/30 07:59:44;;;;;;;64.60;32.88;;;-1.10;99.90;;;;;;4951939;28;20046;-74
2023/11/30 08:06:56;;;;;;;65.15;32.30;;;-1.10;99.90;;;;;;4942404;28;20118;-82
2023/11/30 08:09:23;;;;;;;65.80;30.58;;;-1.10;99.90;;;;;;4948250;28;20047;-82
2023/11/30 08:11:50;;;;;;;66.47;32.70;;;-1.10;99.90;;;;;;4964835;28;20043;-83
2023/11/30 08:14:17;;;;;;;67.85;31.45;;;-1.10;99.90;;;;;;4955240;28;20284;-82
2023/11/30 08:16:44;;;;;;;62.80;30.05;;;-1.00;99.90;;;;;;4948241;28;20057;-82
2023/11/30 08:19:11;;;;;;;61.53;31.63;;;-1.00;99.90;;;;;;4966063;28;20453;-82
2023/11/30 08:21:40;;;;;;;66.68;32.40;;;-0.90;99.90;;;;;;4958378;28;20085;-81
2023/11/30 08:24:08;;;;;;;57.10;30.08;;;-1.00;99.90;;;;;;4961491;28;20656;-82
2023/11/30 08:26:35;;;;;;;60.78;31.38;;;-1.00;99.90;;;;;;4964861;28;20057;-83
2023/11/30 08:29:03;;;;;;;62.30;30.38;;;-1.10;99.90;;;;;;4965364;28;20134;-82
2023/11/30 08:31:30;;;;;;;65.93;31.38;;;-1.00;99.90;;;;;;4967465;28;20573;-83
2023/11/30 08:33:57;;;;;;;64.57;31.00;;;-0.90;99.90;;;;;;4939228;28;20116;-83
2023/11/30 08:36:24;;;;;;;59.38;28.52;;;-0.80;99.90;;;;;;4969604;28;20054;-82
2023/11/30 08:38:51;;;;;;;61.92;28.45;;;-0.80;99.90;;;;;;4978606;28;20065;-82
2023/11/30 08:41:20;;;;;;;54.83;29.30;;;-0.80;99.90;;;;;;4964696;28;20452;-83
2023/11/30 08:43:48;;;;;;;60.22;29.67;;;-0.80;99.90;;;;;;4964369;28;20708;-82
2023/11/30 08:46:15;;;;;;;58.85;29.30;;;-0.70;99.90;;;;;;4960116;28;20446;-83
2023/11/30 08:48:42;;;;;;;56.20;26.20;;;-0.70;99.90;;;;;;4965775;28;20551;-83
2023/11/30 08:51:10;;;;;;;54.08;30.27;;;-0.60;99.90;;;;;;4958550;28;20060;-83
2023/11/30 08:53:37;;;;;;;58.17;30.45;;;-0.60;99.90;;;;;;4959856;28;20089;-85
2023/11/30 08:56:07;;;;;;;60.85;31.27;;;-0.50;99.90;;;;;;4941508;28;20054;-84
2023/11/30 08:58:34;;;;;;;63.83;35.45;;;-0.50;99.90;;;;;;4972114;28;20560;-83
2023/11/30 09:01:01;;;;;;;68.50;35.80;;;-0.40;99.90;;;;;;4948584;28;20160;-83
2023/11/30 09:03:28;;;;;;;52.58;26.88;;;-0.30;99.90;;;;;;4947391;28;20141;-84
2023/11/30 09:05:58;;;;;;;49.78;27.80;;;-0.30;99.90;;;;;;4963614;28;20039;-83
2023/11/30 09:08:25;;;;;;;63.88;38.75;;;-0.30;99.90;;;;;;4969960;28;20142;-84
2023/11/30 09:10:54;;;;;;;97.95;66.53;;;-0.40;99.90;;;;;;4957092;28;20821;-84
2023/11/30 09:13:22;;;;;;;42.15;26.02;;;-0.30;99.90;;;;;;4966135;28;20542;-83
2023/11/30 09:15:49;;;;;;;50.10;31.30;;;-0.10;99.90;;;;;;4964631;28;20064;-83
2023/11/30 09:18:17;;;;;;;40.47;26.67;;;-0.10;99.90;;;;;;4965013;28;20047;-83
2023/11/30 09:20:44;;;;;;;34.35;24.85;;;0.00;99.90;;;;;;4972392;28;20045;-83
2023/11/30 09:23:10;;;;;;;46.67;32.47;;;0.00;99.90;;;;;;4971572;28;20046;-83
2023/11/30 09:25:37;;;;;;;40.95;26.95;;;0.10;99.90;;;;;;4974613;28;20058;-83
2023/11/30 09:28:04;;;;;;;38.22;25.17;;;0.10;99.90;;;;;;4952986;28;20128;-83
2023/11/30 09:30:31;;;;;;;37.63;25.45;;;0.20;99.90;;;;;;4969581;28;20062;-83
2023/11/30 09:32:58;;;;;;;38.80;23.73;;;0.30;99.90;;;;;;4951622;28;20074;-82
2023/11/30 09:35:25;;;;;;;32.92;22.92;;;0.30;99.90;;;;;;4959609;28;20109;-82
2023/11/30 09:37:52;;;;;;;34.30;24.08;;;0.30;99.90;;;;;;4968754;28;20053;-84
2023/11/30 09:40:19;;;;;;;35.83;26.60;;;0.40;99.90;;;;;;4959602;28;20046;-82
2023/11/30 09:42:46;;;;;;;34.80;27.25;;;0.50;99.90;;;;;;4979848;28;20105;-82
2023/11/30 09:45:14;;;;;;;34.55;27.58;;;0.70;99.90;;;;;;4952397;28;20141;-82
2023/11/30 09:47:41;;;;;;;37.30;28.88;;;0.80;99.90;;;;;;4961574;28;20138;-81
2023/11/30 09:50:09;;;;;;;30.30;25.92;;;1.00;99.90;;;;;;4963728;28;20050;-81
2023/11/30 09:52:37;;;;;;;31.85;28.45;;;1.30;99.90;;;;;;4987122;28;20257;-81
2023/11/30 09:55:05;;;;;;;38.10;34.20;;;1.40;99.90;;;;;;4963127;28;20524;-82
2023/11/30 09:57:32;;;;;;;35.40;31.08;;;1.40;99.90;;;;;;4939143;28;20066;-82
2023/11/30 10:00:00;;;;;;;31.70;28.55;;;1.20;99.90;;;;;;4946493;28;20054;-81
2023/11/30 10:02:29;;;;;;;29.88;26.75;;;1.20;99.90;;;;;;4981386;28;20054;-81
2023/11/30 10:04:57;;;;;;;31.13;27.83;;;1.10;99.90;;;;;;4950454;28;20058;-82
2023/11/30 10:07:24;;;;;;;30.77;27.70;;;1.10;99.90;;;;;;4965637;28;20058;-82
2023/11/30 10:09:51;;;;;;;37.90;30.30;;;1.10;99.90;;;;;;4949757;28;20066;-82
2023/11/30 10:12:19;;;;;;;34.67;30.13;;;1.10;99.90;;;;;;4984416;28;20074;-80
2023/11/30 10:15:05;;;;;;;36.58;29.58;;;1.20;99.90;;;;;;4974325;28;20047;-81
2023/11/30 10:17:32;;;;;;;72.65;55.40;;;1.20;99.90;;;;;;4968316;28;20192;-83
2023/11/30 10:19:59;;;;;;;39.92;35.58;;;1.40;99.90;;;;;;4952046;28;20054;-81
2023/11/30 10:22:26;;;;;;;32.90;29.40;;;1.60;99.90;;;;;;4966971;28;20052;-82
2023/11/30 10:24:53;;;;;;;41.38;36.58;;;1.80;99.90;;;;;;4967166;28;20069;-83
2023/11/30 10:27:24;;;;;;;53.15;45.03;;;2.10;99.90;;;;;;4949234;28;20586;-82
2023/11/30 10:29:59;;;;;;;40.15;36.55;;;2.20;99.90;;;;;;4957641;28;21296;-81
2023/11/30 10:32:26;;;;;;;42.03;38.25;;;2.50;99.90;;;;;;4976955;28;20453;-81
2023/11/30 10:34:58;;;;;;;44.10;39.53;;;2.40;99.90;;;;;;4962934;28;20077;-79
2023/11/30 10:37:28;;;;;;;156.07;137.45;;;2.40;99.90;;;;;;4958502;28;20039;-80
2023/11/30 10:40:17;;;;;;;35.58;31.98;;;2.40;99.90;;;;;;4950372;28;20042;-80
2023/11/30 10:42:48;;;;;;;34.60;31.20;;;2.80;99.90;;;;;;4956557;28;20038;-81
2023/11/30 10:45:15;;;;;;;35.88;32.35;;;2.80;99.90;;;;;;4973261;28;20544;-81
2023/11/30 10:47:43;;;;;;;37.08;33.25;;;3.00;99.90;;;;;;4960561;28;20138;-82
2023/11/30 10:50:11;;;;;;;39.75;35.63;;;3.20;99.90;;;;;;4957655;28;20051;-80
2023/11/30 10:52:43;;;;;;;36.75;33.05;;;3.50;99.90;;;;;;4952883;28;20051;-82
2023/11/30 10:55:11;;;;;;;46.80;42.38;;;3.40;99.90;;;;;;4972128;28;20140;-79
2023/11/30 10:57:46;;;;;;;41.58;37.25;;;3.40;99.90;;;;;;4948076;28;20042;-81
2023/11/30 11:00:15;;;;;;;40.83;35.50;;;3.40;99.90;;;;;;4963394;28;20055;-82
2023/11/30 11:02:45;;;;;;;52.83;40.00;;;3.40;99.90;;;;;;4977314;28;20050;-81
2023/11/30 11:05:18;;;;;;;52.53;43.08;;;3.40;99.90;;;;;;4968478;28;20053;-78
2023/11/30 11:07:52;;;;;;;42.53;38.17;;;3.30;99.90;;;;;;4980423;28;20077;-80
2023/11/30 11:10:26;;;;;;;40.85;35.80;;;3.50;99.90;;;;;;4970211;28;20509;-80
2023/11/30 11:12:57;;;;;;;62.22;47.03;;;3.40;99.90;;;;;;4960078;28;20066;-79
2023/11/30 11:15:24;;;;;;;48.92;41.58;;;3.30;99.90;;;;;;4954441;28;20046;-81
2023/11/30 11:18:07;;;;;;;55.15;49.72;;;3.30;99.90;;;;;;4936375;28;20093;-80
2023/11/30 11:20:36;;;;;;;42.90;38.22;;;3.20;99.90;;;;;;4952690;28;20046;-78
2023/11/30 11:23:03;;;;;;;41.38;36.22;;;2.90;99.90;;;;;;4959209;28;20818;-80
2023/11/30 11:25:39;;;;;;;40.28;35.95;;;2.90;99.90;;;;;;4971803;28;20122;-80
2023/11/30 11:28:06;;;;;;;41.28;34.83;;;2.60;99.90;;;;;;4950165;28;20046;-80
2023/11/30 11:30:43;;;;;;;37.67;32.47;;;2.20;99.90;;;;;;4951928;28;20054;-79
2023/11/30 11:33:10;;;;;;;38.95;32.75;;;2.10;99.90;;;;;;4941412;28;20057;-80
2023/11/30 11:35:37;;;;;;;41.05;33.20;;;1.80;99.90;;;;;;4948232;28;20050;-78
2023/11/30 11:38:03;;;;;;;40.50;34.00;;;1.90;99.90;;;;;;4978516;28;20052;-80
2023/11/30 11:40:30;;;;;;;38.50;31.92;;;2.00;99.90;;;;;;4954928;28;20580;-79
2023/11/30 11:42:58;;;;;;;39.97;35.72;;;2.30;99.90;;;;;;4951833;28;20050;-78
2023/11/30 11:45:25;;;;;;;41.53;37.45;;;2.30;99.90;;;;;;4952246;28;20043;-79
2023/11/30 11:47:53;;;;;;;40.22;32.03;;;2.20;99.90;;;;;;4953502;28;20081;-79
2023/11/30 11:50:20;;;;;;;37.53;33.60;;;2.10;99.90;;;;;;4951875;28;20053;-80
2023/11/30 11:52:48;;;;;;;41.22;33.42;;;1.80;99.90;;;;;;4952745;28;20058;-79
2023/11/30 11:55:15;;;;;;;37.10;30.20;;;1.60;99.90;;;;;;4978429;28;20055;-80
2023/11/30 11:57:44;;;;;;;43.28;32.92;;;1.40;99.90;;;;;;4967184;28;20041;-79
2023/11/30 12:00:20;;;;;;;35.15;29.55;;;1.20;99.90;;;;;;4941606;28;20053;-80
2023/11/30 12:02:47;;;;;;;43.30;30.88;;;1.00;99.90;;;;;;4961753;28;20042;-80
2023/11/30 12:05:20;;;;;;;40.30;28.17;;;0.80;99.90;;;;;;4956630;28;20047;-81
2023/11/30 12:07:58;;;;;;;48.85;30.20;;;0.60;99.90;;;;;;4953264;28;20057;-82
2023/11/30 12:10:25;;;;;;;45.00;29.27;;;0.60;99.90;;;;;;4941160;28;20070;-80
2023/11/30 12:12:52;;;;;;;51.95;30.40;;;0.40;99.90;;;;;;4946318;28;20088;-80
2023/11/30 12:15:19;;;;;;;53.03;31.13;;;0.40;99.90;;;;;;4945148;28;20722;-81
2023/11/30 12:17:47;;;;;;;52.75;31.63;;;0.30;99.90;;;;;;4949423;28;20117;-81
2023/11/30 12:20:17;;;;;;;60.13;34.38;;;0.30;99.90;;;;;;4966033;28;20039;-82
2023/11/30 12:22:45;;;;;;;68.18;40.00;;;0.30;99.90;;;;;;4976878;28;20049;-81
2023/11/30 12:25:12;;;;;;;60.03;33.28;;;0.20;99.90;;;;;;4960952;28;20054;-83
2023/11/30 12:27:39;;;;;;;65.63;38.00;;;0.30;99.90;;;;;;4980456;28;20042;-80
2023/11/30 12:30:08;;;;;;;55.22;33.08;;;0.30;99.90;;;;;;4953091;28;20039;-82
2023/11/30 12:32:37;;;;;;;59.15;34.28;;;0.40;99.90;;;;;;4960883;28;20053;-82
2023/11/30 12:35:06;;;;;;;58.50;33.55;;;0.50;99.90;;;;;;4942006;28;20524;-82
2023/11/30 12:37:35;;;;;;;63.08;40.10;;;0.60;99.90;;;;;;4964901;28;20046;-81